sensor_id;sensor_type;location;lat;lon;timestamp;P1;durP1;ratioP1;P2;durP2;ratioP2
22068;SDS011;13887;57.196;-2.100;2022-10-31T00:01:47;11.73;;;11.33;;
22068;SDS011;13887;57.196;-2.100;2022-10-31T00:04:14;11.60;;;11.20;;
22068;SDS011;13887;57.196;-2.100;2022-10-31T00:06:40;11.80;;;11.40;;
22068;SDS011;13887;57.196;-2.100;2022-10-31T00:09:08;11.73;;;11.33;;
22068;SDS011;13887;57.196;-2.100;2022-10-31T00:11:36;11.57;;;11.17;;
22068;SDS011;13887;57.196;-2.100;2022-10-31T00:14:02;11.37;;;10.97;;
22068;SDS011;13887;57.196;-2.100;2022-10-31T00:16:29;11.43;;;11.07;;
22068;SDS011;13887;57.196;-2.100;2022-10-31T00:19:00;11.50;;;11.10;;
22068;SDS011;13887;57.196;-2.100;2022-10-31T00:21:30;11.67;;;11.27;;
22068;SDS011;13887;57.196;-2.100;2022-10-31T00:23:58;11.60;;;11.20;;
22068;SDS011;13887;57.196;-2.100;2022-10-31T00:26:29;11.80;;;11.40;;
22068;SDS011;13887;57.196;-2.100;2022-10-31T00:28:58;12.00;;;11.60;;
22068;SDS011;13887;57.196;-2.100;2022-10-31T00:31:26;12.00;;;11.60;;
22068;SDS011;13887;57.196;-2.100;2022-10-31T00:33:53;12.20;;;11.80;;
22068;SDS011;13887;57.196;-2.100;2022-10-31T00:36:20;12.07;;;11.67;;
22068;SDS011;13887;57.196;-2.100;2022-10-31T00:38:47;12.00;;;11.60;;
22068;SDS011;13887;57.196;-2.100;2022-10-31T00:41:15;11.80;;;11.40;;
22068;SDS011;13887;57.196;-2.100;2022-10-31T00:43:44;11.73;;;11.33;;
22068;SDS011;13887;57.196;-2.100;2022-10-31T00:46:11;11.80;;;11.40;;
22068;SDS011;13887;57.196;-2.100;2022-10-31T00:48:40;12.20;;;11.80;;
22068;SDS011;13887;57.196;-2.100;2022-10-31T00:51:07;11.90;;;11.50;;
22068;SDS011;13887;57.196;-2.100;2022-10-31T00:53:34;11.90;;;11.50;;
22068;SDS011;13887;57.196;-2.100;2022-10-31T00:56:01;11.80;;;11.40;;
22068;SDS011;13887;57.196;-2.100;2022-10-31T00:58:29;11.67;;;11.27;;
22068;SDS011;13887;57.196;-2.100;2022-10-31T01:00:56;11.70;;;11.30;;
22068;SDS011;13887;57.196;-2.100;2022-10-31T01:03:27;11.67;;;11.27;;
22068;SDS011;13887;57.196;-2.100;2022-10-31T01:06:06;12.00;;;11.60;;
22068;SDS011;13887;57.196;-2.100;2022-10-31T01:08:37;11.67;;;11.27;;
22068;SDS011;13887;57.196;-2.100;2022-10-31T01:11:07;11.70;;;11.30;;
22068;SDS011;13887;57.196;-2.100;2022-10-31T01:13:34;11.70;;;11.30;;
22068;SDS011;13887;57.196;-2.100;2022-10-31T01:16:02;11.70;;;11.30;;
22068;SDS011;13887;57.196;-2.100;2022-10-31T01:18:31;11.37;;;10.97;;
22068;SDS011;13887;57.196;-2.100;2022-10-31T01:21:00;11.87;;;11.47;;
22068;SDS011;13887;57.196;-2.100;2022-10-31T01:23:31;11.67;;;11.27;;
22068;SDS011;13887;57.196;-2.100;2022-10-31T01:26:21;11.67;;;11.27;;
22068;SDS011;13887;57.196;-2.100;2022-10-31T01:29:03;11.50;;;11.10;;
22068;SDS011;13887;57.196;-2.100;2022-10-31T01:31:33;11.37;;;11.00;;
22068;SDS011;13887;57.196;-2.100;2022-10-31T01:34:01;11.50;;;11.10;;
22068;SDS011;13887;57.196;-2.100;2022-10-31T01:36:30;11.40;;;11.00;;
22068;SDS011;13887;57.196;-2.100;2022-10-31T01:38:59;11.23;;;10.90;;
22068;SDS011;13887;57.196;-2.100;2022-10-31T01:41:30;11.53;;;11.13;;
22068;SDS011;13887;57.196;-2.100;2022-10-31T01:44:01;11.00;;;10.70;;
22068;SDS011;13887;57.196;-2.100;2022-10-31T01:46:30;11.20;;;10.90;;
22068;SDS011;13887;57.196;-2.100;2022-10-31T01:49:05;11.40;;;11.00;;
22068;SDS011;13887;57.196;-2.100;2022-10-31T01:51:39;11.27;;;10.93;;
22068;SDS011;13887;57.196;-2.100;2022-10-31T01:54:10;11.13;;;10.83;;
22068;SDS011;13887;57.196;-2.100;2022-10-31T01:56:42;11.50;;;11.10;;
22068;SDS011;13887;57.196;-2.100;2022-10-31T01:59:13;11.43;;;11.03;;
22068;SDS011;13887;57.196;-2.100;2022-10-31T02:01:43;11.60;;;11.20;;
22068;SDS011;13887;57.196;-2.100;2022-10-31T02:04:10;11.30;;;10.93;;
22068;SDS011;13887;57.196;-2.100;2022-10-31T02:06:54;11.67;;;11.27;;
22068;SDS011;13887;57.196;-2.100;2022-10-31T02:09:26;11.43;;;11.03;;
22068;SDS011;13887;57.196;-2.100;2022-10-31T02:11:57;11.53;;;11.13;;
22068;SDS011;13887;57.196;-2.100;2022-10-31T02:14:26;11.47;;;11.07;;
22068;SDS011;13887;57.196;-2.100;2022-10-31T02:16:55;11.20;;;10.90;;
22068;SDS011;13887;57.196;-2.100;2022-10-31T02:22:17;11.50;;;11.10;;
22068;SDS011;13887;57.196;-2.100;2022-10-31T02:25:24;11.37;;;10.97;;
22068;SDS011;13887;57.196;-2.100;2022-10-31T02:28:22;11.40;;;11.00;;
22068;SDS011;13887;57.196;-2.100;2022-10-31T02:31:08;11.73;;;11.33;;
22068;SDS011;13887;57.196;-2.100;2022-10-31T02:33:43;11.07;;;10.77;;
22068;SDS011;13887;57.196;-2.100;2022-10-31T02:36:23;10.97;;;10.67;;
22068;SDS011;13887;57.196;-2.100;2022-10-31T02:44:28;10.83;;;10.53;;
22068;SDS011;13887;57.196;-2.100;2022-10-31T02:47:03;11.40;;;11.00;;
22068;SDS011;13887;57.196;-2.100;2022-10-31T02:49:56;10.83;;;10.53;;
22068;SDS011;13887;57.196;-2.100;2022-10-31T02:52:27;11.03;;;10.73;;
22068;SDS011;13887;57.196;-2.100;2022-10-31T02:55:42;10.80;;;10.50;;
22068;SDS011;13887;57.196;-2.100;2022-10-31T02:58:06;10.87;;;10.57;;
22068;SDS011;13887;57.196;-2.100;2022-10-31T03:06:24;11.07;;;10.77;;
22068;SDS011;13887;57.196;-2.100;2022-10-31T03:12:02;10.80;;;10.50;;
22068;SDS011;13887;57.196;-2.100;2022-10-31T03:14:41;11.20;;;10.90;;
22068;SDS011;13887;57.196;-2.100;2022-10-31T03:17:18;11.10;;;10.80;;
22068;SDS011;13887;57.196;-2.100;2022-10-31T03:19:52;10.93;;;10.63;;
22068;SDS011;13887;57.196;-2.100;2022-10-31T03:22:25;11.53;;;11.13;;
22068;SDS011;13887;57.196;-2.100;2022-10-31T03:24:57;11.40;;;11.00;;
22068;SDS011;13887;57.196;-2.100;2022-10-31T03:27:28;11.00;;;10.70;;
22068;SDS011;13887;57.196;-2.100;2022-10-31T03:30:00;11.20;;;10.90;;
22068;SDS011;13887;57.196;-2.100;2022-10-31T03:32:48;10.93;;;10.63;;
22068;SDS011;13887;57.196;-2.100;2022-10-31T03:35:22;11.20;;;10.90;;
22068;SDS011;13887;57.196;-2.100;2022-10-31T03:37:51;11.40;;;11.03;;
22068;SDS011;13887;57.196;-2.100;2022-10-31T03:40:21;10.97;;;10.67;;
22068;SDS011;13887;57.196;-2.100;2022-10-31T03:42:51;11.20;;;10.90;;
22068;SDS011;13887;57.196;-2.100;2022-10-31T03:45:26;11.17;;;10.87;;
22068;SDS011;13887;57.196;-2.100;2022-10-31T03:47:57;11.47;;;11.07;;
22068;SDS011;13887;57.196;-2.100;2022-10-31T03:50:27;11.33;;;10.93;;
22068;SDS011;13887;57.196;-2.100;2022-10-31T03:53:03;11.53;;;11.13;;
22068;SDS011;13887;57.196;-2.100;2022-10-31T03:55:38;11.40;;;11.00;;
22068;SDS011;13887;57.196;-2.100;2022-10-31T03:58:21;11.30;;;10.97;;
22068;SDS011;13887;57.196;-2.100;2022-10-31T04:00:54;11.53;;;11.13;;
22068;SDS011;13887;57.196;-2.100;2022-10-31T04:03:31;11.87;;;11.47;;
22068;SDS011;13887;57.196;-2.100;2022-10-31T04:06:02;10.90;;;10.60;;
22068;SDS011;13887;57.196;-2.100;2022-10-31T04:08:36;11.47;;;11.07;;
22068;SDS011;13887;57.196;-2.100;2022-10-31T04:11:12;11.07;;;10.77;;
22068;SDS011;13887;57.196;-2.100;2022-10-31T04:13:45;11.23;;;10.90;;
22068;SDS011;13887;57.196;-2.100;2022-10-31T04:16:20;11.57;;;11.17;;
22068;SDS011;13887;57.196;-2.100;2022-10-31T04:18:48;10.93;;;10.63;;
22068;SDS011;13887;57.196;-2.100;2022-10-31T04:21:15;11.20;;;10.90;;
22068;SDS011;13887;57.196;-2.100;2022-10-31T04:23:43;10.97;;;10.67;;
22068;SDS011;13887;57.196;-2.100;2022-10-31T04:26:17;11.33;;;10.97;;
22068;SDS011;13887;57.196;-2.100;2022-10-31T04:28:45;11.13;;;10.83;;
22068;SDS011;13887;57.196;-2.100;2022-10-31T04:31:12;11.73;;;11.33;;
22068;SDS011;13887;57.196;-2.100;2022-10-31T04:33:41;11.00;;;10.70;;
22068;SDS011;13887;57.196;-2.100;2022-10-31T04:36:08;11.70;;;11.30;;
22068;SDS011;13887;57.196;-2.100;2022-10-31T04:38:36;11.47;;;11.07;;
22068;SDS011;13887;57.196;-2.100;2022-10-31T04:41:10;11.70;;;11.30;;
22068;SDS011;13887;57.196;-2.100;2022-10-31T04:43:37;11.13;;;10.83;;
22068;SDS011;13887;57.196;-2.100;2022-10-31T04:46:04;11.80;;;11.40;;
22068;SDS011;13887;57.196;-2.100;2022-10-31T04:48:32;11.37;;;10.97;;
22068;SDS011;13887;57.196;-2.100;2022-10-31T04:51:01;11.70;;;11.30;;
22068;SDS011;13887;57.196;-2.100;2022-10-31T04:53:28;11.00;;;10.70;;
22068;SDS011;13887;57.196;-2.100;2022-10-31T04:56:14;11.50;;;11.10;;
22068;SDS011;13887;57.196;-2.100;2022-10-31T04:58:44;11.40;;;11.00;;
22068;SDS011;13887;57.196;-2.100;2022-10-31T05:01:11;12.00;;;11.60;;
22068;SDS011;13887;57.196;-2.100;2022-10-31T05:03:39;11.80;;;11.40;;
22068;SDS011;13887;57.196;-2.100;2022-10-31T05:06:06;12.00;;;11.60;;
22068;SDS011;13887;57.196;-2.100;2022-10-31T05:08:34;11.90;;;11.50;;
22068;SDS011;13887;57.196;-2.100;2022-10-31T05:11:04;11.40;;;11.00;;
22068;SDS011;13887;57.196;-2.100;2022-10-31T05:13:32;11.80;;;11.40;;
22068;SDS011;13887;57.196;-2.100;2022-10-31T05:16:11;12.00;;;11.60;;
22068;SDS011;13887;57.196;-2.100;2022-10-31T05:18:38;11.57;;;11.17;;
22068;SDS011;13887;57.196;-2.100;2022-10-31T05:21:25;11.80;;;11.40;;
22068;SDS011;13887;57.196;-2.100;2022-10-31T05:24:00;11.70;;;11.30;;
22068;SDS011;13887;57.196;-2.100;2022-10-31T05:26:28;11.57;;;11.17;;
22068;SDS011;13887;57.196;-2.100;2022-10-31T05:28:55;11.70;;;11.30;;
22068;SDS011;13887;57.196;-2.100;2022-10-31T05:31:22;11.83;;;11.43;;
22068;SDS011;13887;57.196;-2.100;2022-10-31T05:33:50;11.80;;;11.40;;
22068;SDS011;13887;57.196;-2.100;2022-10-31T05:36:55;11.77;;;11.37;;
22068;SDS011;13887;57.196;-2.100;2022-10-31T05:39:23;12.00;;;11.60;;
22068;SDS011;13887;57.196;-2.100;2022-10-31T05:41:54;12.10;;;11.70;;
22068;SDS011;13887;57.196;-2.100;2022-10-31T05:44:24;12.00;;;11.60;;
22068;SDS011;13887;57.196;-2.100;2022-10-31T05:47:21;12.10;;;11.70;;
22068;SDS011;13887;57.196;-2.100;2022-10-31T05:49:54;12.30;;;11.90;;
22068;SDS011;13887;57.196;-2.100;2022-10-31T05:52:36;12.00;;;11.60;;
22068;SDS011;13887;57.196;-2.100;2022-10-31T05:55:18;12.20;;;11.80;;
22068;SDS011;13887;57.196;-2.100;2022-10-31T05:58:05;12.47;;;12.07;;
22068;SDS011;13887;57.196;-2.100;2022-10-31T06:00:35;12.60;;;12.20;;
22068;SDS011;13887;57.196;-2.100;2022-10-31T06:03:07;13.07;;;12.67;;
22068;SDS011;13887;57.196;-2.100;2022-10-31T06:05:46;12.90;;;12.50;;
22068;SDS011;13887;57.196;-2.100;2022-10-31T06:08:20;12.50;;;12.10;;
22068;SDS011;13887;57.196;-2.100;2022-10-31T06:10:48;13.17;;;12.77;;
22068;SDS011;13887;57.196;-2.100;2022-10-31T06:13:21;13.07;;;12.67;;
22068;SDS011;13887;57.196;-2.100;2022-10-31T06:15:58;13.00;;;12.60;;
22068;SDS011;13887;57.196;-2.100;2022-10-31T06:18:32;12.93;;;12.53;;
22068;SDS011;13887;57.196;-2.100;2022-10-31T06:20:59;12.67;;;12.27;;
22068;SDS011;13887;57.196;-2.100;2022-10-31T06:23:27;12.83;;;12.43;;
22068;SDS011;13887;57.196;-2.100;2022-10-31T06:26:14;12.90;;;12.50;;
22068;SDS011;13887;57.196;-2.100;2022-10-31T06:28:41;12.67;;;12.27;;
22068;SDS011;13887;57.196;-2.100;2022-10-31T06:31:27;13.03;;;12.63;;
22068;SDS011;13887;57.196;-2.100;2022-10-31T06:33:54;12.97;;;12.57;;
22068;SDS011;13887;57.196;-2.100;2022-10-31T06:36:22;12.90;;;12.50;;
22068;SDS011;13887;57.196;-2.100;2022-10-31T06:38:51;12.77;;;12.37;;
22068;SDS011;13887;57.196;-2.100;2022-10-31T06:41:21;13.33;;;12.87;;
22068;SDS011;13887;57.196;-2.100;2022-10-31T06:43:48;13.07;;;12.67;;
22068;SDS011;13887;57.196;-2.100;2022-10-31T06:46:34;12.50;;;12.10;;
22068;SDS011;13887;57.196;-2.100;2022-10-31T06:49:19;12.90;;;12.50;;
22068;SDS011;13887;57.196;-2.100;2022-10-31T06:51:53;12.63;;;12.23;;
22068;SDS011;13887;57.196;-2.100;2022-10-31T06:54:20;13.40;;;12.90;;
22068;SDS011;13887;57.196;-2.100;2022-10-31T06:56:47;13.30;;;12.80;;
22068;SDS011;13887;57.196;-2.100;2022-10-31T06:59:15;12.80;;;12.40;;
22068;SDS011;13887;57.196;-2.100;2022-10-31T07:02:01;13.57;;;13.07;;
22068;SDS011;13887;57.196;-2.100;2022-10-31T07:04:28;13.43;;;12.93;;
22068;SDS011;13887;57.196;-2.100;2022-10-31T07:06:55;13.47;;;12.97;;
22068;SDS011;13887;57.196;-2.100;2022-10-31T07:09:22;13.03;;;12.63;;
22068;SDS011;13887;57.196;-2.100;2022-10-31T07:11:51;12.87;;;12.47;;
22068;SDS011;13887;57.196;-2.100;2022-10-31T07:14:19;13.07;;;12.67;;
22068;SDS011;13887;57.196;-2.100;2022-10-31T07:16:50;13.90;;;13.40;;
22068;SDS011;13887;57.196;-2.100;2022-10-31T07:19:23;13.33;;;12.83;;
22068;SDS011;13887;57.196;-2.100;2022-10-31T07:21:50;13.70;;;13.20;;
22068;SDS011;13887;57.196;-2.100;2022-10-31T07:24:17;13.57;;;13.07;;
22068;SDS011;13887;57.196;-2.100;2022-10-31T07:27:02;13.30;;;12.90;;
22068;SDS011;13887;57.196;-2.100;2022-10-31T07:29:29;13.03;;;12.63;;
22068;SDS011;13887;57.196;-2.100;2022-10-31T07:31:57;13.17;;;12.77;;
22068;SDS011;13887;57.196;-2.100;2022-10-31T07:34:26;13.43;;;12.93;;
22068;SDS011;13887;57.196;-2.100;2022-10-31T07:36:59;13.23;;;12.83;;
22068;SDS011;13887;57.196;-2.100;2022-10-31T07:39:26;13.60;;;13.10;;
22068;SDS011;13887;57.196;-2.100;2022-10-31T07:41:53;13.30;;;12.90;;
22068;SDS011;13887;57.196;-2.100;2022-10-31T07:44:20;13.07;;;12.67;;
22068;SDS011;13887;57.196;-2.100;2022-10-31T07:47:07;13.23;;;12.83;;
22068;SDS011;13887;57.196;-2.100;2022-10-31T07:49:52;13.17;;;12.77;;
22068;SDS011;13887;57.196;-2.100;2022-10-31T07:52:38;12.80;;;12.40;;
22068;SDS011;13887;57.196;-2.100;2022-10-31T07:55:23;13.13;;;12.73;;
22068;SDS011;13887;57.196;-2.100;2022-10-31T07:57:59;13.00;;;12.60;;
22068;SDS011;13887;57.196;-2.100;2022-10-31T08:00:28;13.17;;;12.77;;
22068;SDS011;13887;57.196;-2.100;2022-10-31T08:03:06;13.27;;;12.87;;
22068;SDS011;13887;57.196;-2.100;2022-10-31T08:05:53;12.57;;;12.17;;
22068;SDS011;13887;57.196;-2.100;2022-10-31T08:08:29;13.93;;;13.43;;
22068;SDS011;13887;57.196;-2.100;2022-10-31T08:11:01;14.00;;;13.50;;
22068;SDS011;13887;57.196;-2.100;2022-10-31T08:13:29;13.77;;;13.27;;
22068;SDS011;13887;57.196;-2.100;2022-10-31T08:15:57;13.90;;;13.40;;
22068;SDS011;13887;57.196;-2.100;2022-10-31T08:18:32;14.10;;;13.60;;
22068;SDS011;13887;57.196;-2.100;2022-10-31T08:20:59;13.90;;;13.40;;
22068;SDS011;13887;57.196;-2.100;2022-10-31T08:23:26;13.80;;;13.30;;
22068;SDS011;13887;57.196;-2.100;2022-10-31T08:25:54;13.10;;;12.70;;
22068;SDS011;13887;57.196;-2.100;2022-10-31T08:28:22;13.87;;;13.37;;
22068;SDS011;13887;57.196;-2.100;2022-10-31T08:30:50;13.20;;;12.80;;
22068;SDS011;13887;57.196;-2.100;2022-10-31T08:33:36;13.60;;;13.10;;
22068;SDS011;13887;57.196;-2.100;2022-10-31T08:36:35;13.70;;;13.20;;
22068;SDS011;13887;57.196;-2.100;2022-10-31T08:39:14;13.70;;;13.20;;
22068;SDS011;13887;57.196;-2.100;2022-10-31T08:41:41;13.10;;;12.70;;
22068;SDS011;13887;57.196;-2.100;2022-10-31T08:44:11;13.70;;;13.20;;
22068;SDS011;13887;57.196;-2.100;2022-10-31T08:46:38;13.80;;;13.30;;
22068;SDS011;13887;57.196;-2.100;2022-10-31T08:49:04;13.00;;;12.60;;
22068;SDS011;13887;57.196;-2.100;2022-10-31T08:51:32;13.63;;;13.13;;
22068;SDS011;13887;57.196;-2.100;2022-10-31T08:53:59;13.63;;;13.13;;
22068;SDS011;13887;57.196;-2.100;2022-10-31T08:56:32;13.40;;;12.90;;
22068;SDS011;13887;57.196;-2.100;2022-10-31T08:59:01;12.67;;;12.27;;
22068;SDS011;13887;57.196;-2.100;2022-10-31T09:01:55;13.90;;;13.40;;
22068;SDS011;13887;57.196;-2.100;2022-10-31T09:04:23;13.10;;;12.70;;
22068;SDS011;13887;57.196;-2.100;2022-10-31T09:06:49;13.13;;;12.73;;
22068;SDS011;13887;57.196;-2.100;2022-10-31T09:09:37;13.20;;;12.80;;
22068;SDS011;13887;57.196;-2.100;2022-10-31T09:12:04;13.00;;;12.60;;
22068;SDS011;13887;57.196;-2.100;2022-10-31T09:15:06;12.60;;;12.20;;
22068;SDS011;13887;57.196;-2.100;2022-10-31T09:17:54;13.10;;;12.70;;
22068;SDS011;13887;57.196;-2.100;2022-10-31T09:20:37;13.20;;;12.80;;
22068;SDS011;13887;57.196;-2.100;2022-10-31T09:23:06;12.33;;;11.93;;
22068;SDS011;13887;57.196;-2.100;2022-10-31T09:25:38;12.87;;;12.47;;
22068;SDS011;13887;57.196;-2.100;2022-10-31T09:28:31;13.60;;;13.10;;
22068;SDS011;13887;57.196;-2.100;2022-10-31T09:31:06;13.10;;;12.70;;
22068;SDS011;13887;57.196;-2.100;2022-10-31T09:33:56;13.23;;;12.83;;
22068;SDS011;13887;57.196;-2.100;2022-10-31T09:36:35;13.13;;;12.73;;
22068;SDS011;13887;57.196;-2.100;2022-10-31T09:39:06;12.50;;;12.10;;
22068;SDS011;13887;57.196;-2.100;2022-10-31T09:50:18;13.27;;;12.87;;
22068;SDS011;13887;57.196;-2.100;2022-10-31T09:53:02;13.20;;;12.80;;
22068;SDS011;13887;57.196;-2.100;2022-10-31T09:55:36;13.23;;;12.83;;
22068;SDS011;13887;57.196;-2.100;2022-10-31T09:58:26;12.90;;;12.50;;
22068;SDS011;13887;57.196;-2.100;2022-10-31T10:00:56;13.07;;;12.67;;
22068;SDS011;13887;57.196;-2.100;2022-10-31T10:06:25;12.77;;;12.37;;
22068;SDS011;13887;57.196;-2.100;2022-10-31T10:09:25;13.00;;;12.60;;
22068;SDS011;13887;57.196;-2.100;2022-10-31T10:23:22;12.60;;;12.20;;
22068;SDS011;13887;57.196;-2.100;2022-10-31T10:26:02;13.10;;;12.70;;
22068;SDS011;13887;57.196;-2.100;2022-10-31T10:29:31;13.27;;;12.87;;
22068;SDS011;13887;57.196;-2.100;2022-10-31T10:32:00;12.97;;;12.57;;
22068;SDS011;13887;57.196;-2.100;2022-10-31T10:34:37;13.17;;;12.77;;
22068;SDS011;13887;57.196;-2.100;2022-10-31T10:37:17;13.50;;;13.00;;
22068;SDS011;13887;57.196;-2.100;2022-10-31T10:40:01;12.80;;;12.40;;
22068;SDS011;13887;57.196;-2.100;2022-10-31T10:42:37;13.57;;;13.07;;
22068;SDS011;13887;57.196;-2.100;2022-10-31T10:45:22;13.37;;;12.97;;
22068;SDS011;13887;57.196;-2.100;2022-10-31T10:48:14;13.20;;;12.80;;
22068;SDS011;13887;57.196;-2.100;2022-10-31T10:50:46;13.23;;;12.83;;
22068;SDS011;13887;57.196;-2.100;2022-10-31T10:56:29;13.03;;;12.63;;
22068;SDS011;13887;57.196;-2.100;2022-10-31T10:59:03;13.30;;;12.90;;
22068;SDS011;13887;57.196;-2.100;2022-10-31T11:01:30;13.80;;;13.30;;
22068;SDS011;13887;57.196;-2.100;2022-10-31T11:03:57;13.83;;;13.33;;
22068;SDS011;13887;57.196;-2.100;2022-10-31T11:06:23;13.60;;;13.10;;
22068;SDS011;13887;57.196;-2.100;2022-10-31T11:08:54;14.00;;;13.50;;
22068;SDS011;13887;57.196;-2.100;2022-10-31T11:11:27;13.33;;;12.90;;
22068;SDS011;13887;57.196;-2.100;2022-10-31T11:13:59;13.20;;;12.80;;
22068;SDS011;13887;57.196;-2.100;2022-10-31T11:16:30;12.83;;;12.43;;
22068;SDS011;13887;57.196;-2.100;2022-10-31T11:21:41;13.60;;;13.10;;
22068;SDS011;13887;57.196;-2.100;2022-10-31T11:26:35;13.40;;;12.90;;
22068;SDS011;13887;57.196;-2.100;2022-10-31T11:29:04;13.03;;;12.63;;
22068;SDS011;13887;57.196;-2.100;2022-10-31T11:31:34;13.30;;;12.90;;
22068;SDS011;13887;57.196;-2.100;2022-10-31T11:34:06;13.17;;;12.77;;
22068;SDS011;13887;57.196;-2.100;2022-10-31T11:36:42;13.23;;;12.83;;
22068;SDS011;13887;57.196;-2.100;2022-10-31T11:39:15;13.57;;;13.07;;
22068;SDS011;13887;57.196;-2.100;2022-10-31T11:41:48;13.23;;;12.83;;
22068;SDS011;13887;57.196;-2.100;2022-10-31T11:44:19;13.13;;;12.73;;
22068;SDS011;13887;57.196;-2.100;2022-10-31T11:46:54;12.90;;;12.50;;
22068;SDS011;13887;57.196;-2.100;2022-10-31T11:49:28;13.00;;;12.60;;
22068;SDS011;13887;57.196;-2.100;2022-10-31T11:51:59;12.80;;;12.40;;
22068;SDS011;13887;57.196;-2.100;2022-10-31T11:54:32;13.47;;;13.00;;
22068;SDS011;13887;57.196;-2.100;2022-10-31T11:57:28;13.07;;;12.67;;
22068;SDS011;13887;57.196;-2.100;2022-10-31T12:00:00;13.50;;;13.00;;
22068;SDS011;13887;57.196;-2.100;2022-10-31T12:02:37;12.97;;;12.57;;
22068;SDS011;13887;57.196;-2.100;2022-10-31T12:05:06;12.90;;;12.50;;
22068;SDS011;13887;57.196;-2.100;2022-10-31T12:07:43;13.23;;;12.83;;
22068;SDS011;13887;57.196;-2.100;2022-10-31T12:10:10;12.97;;;12.57;;
22068;SDS011;13887;57.196;-2.100;2022-10-31T12:15:23;12.93;;;12.53;;
22068;SDS011;13887;57.196;-2.100;2022-10-31T12:20:41;12.47;;;12.07;;
22068;SDS011;13887;57.196;-2.100;2022-10-31T12:29:22;13.17;;;12.77;;
22068;SDS011;13887;57.196;-2.100;2022-10-31T12:32:40;13.20;;;12.80;;
22068;SDS011;13887;57.196;-2.100;2022-10-31T12:45:50;13.03;;;12.63;;
22068;SDS011;13887;57.196;-2.100;2022-10-31T12:51:33;13.20;;;12.80;;
22068;SDS011;13887;57.196;-2.100;2022-10-31T12:59:49;13.20;;;12.80;;
22068;SDS011;13887;57.196;-2.100;2022-10-31T13:05:27;13.40;;;12.97;;
22068;SDS011;13887;57.196;-2.100;2022-10-31T13:08:03;13.67;;;13.17;;
22068;SDS011;13887;57.196;-2.100;2022-10-31T13:10:44;13.20;;;12.80;;
22068;SDS011;13887;57.196;-2.100;2022-10-31T13:13:43;13.60;;;13.10;;
22068;SDS011;13887;57.196;-2.100;2022-10-31T13:16:18;13.23;;;12.83;;
22068;SDS011;13887;57.196;-2.100;2022-10-31T13:21:21;13.80;;;13.30;;
22068;SDS011;13887;57.196;-2.100;2022-10-31T13:23:52;13.63;;;13.13;;
22068;SDS011;13887;57.196;-2.100;2022-10-31T13:26:38;13.87;;;13.37;;
22068;SDS011;13887;57.196;-2.100;2022-10-31T13:29:27;13.83;;;13.33;;
22068;SDS011;13887;57.196;-2.100;2022-10-31T13:31:59;13.07;;;12.67;;
22068;SDS011;13887;57.196;-2.100;2022-10-31T13:34:33;13.10;;;12.70;;
22068;SDS011;13887;57.196;-2.100;2022-10-31T13:42:57;13.97;;;13.47;;
22068;SDS011;13887;57.196;-2.100;2022-10-31T13:45:31;14.10;;;13.60;;
22068;SDS011;13887;57.196;-2.100;2022-10-31T13:47:59;13.33;;;12.93;;
22068;SDS011;13887;57.196;-2.100;2022-10-31T13:50:32;13.83;;;13.33;;
22068;SDS011;13887;57.196;-2.100;2022-10-31T13:56:02;14.00;;;13.50;;
22068;SDS011;13887;57.196;-2.100;2022-10-31T13:58:36;13.93;;;13.43;;
22068;SDS011;13887;57.196;-2.100;2022-10-31T14:01:12;14.30;;;13.80;;
22068;SDS011;13887;57.196;-2.100;2022-10-31T14:03:45;14.07;;;13.57;;
22068;SDS011;13887;57.196;-2.100;2022-10-31T14:09:17;14.20;;;13.70;;
22068;SDS011;13887;57.196;-2.100;2022-10-31T14:11:58;14.07;;;13.57;;
22068;SDS011;13887;57.196;-2.100;2022-10-31T14:14:31;13.67;;;13.17;;
22068;SDS011;13887;57.196;-2.100;2022-10-31T14:17:02;14.20;;;13.70;;
22068;SDS011;13887;57.196;-2.100;2022-10-31T14:19:29;14.13;;;13.63;;
22068;SDS011;13887;57.196;-2.100;2022-10-31T14:21:56;14.10;;;13.60;;
22068;SDS011;13887;57.196;-2.100;2022-10-31T14:29:32;13.97;;;13.47;;
22068;SDS011;13887;57.196;-2.100;2022-10-31T14:32:06;13.63;;;13.13;;
22068;SDS011;13887;57.196;-2.100;2022-10-31T14:34:42;13.60;;;13.10;;
22068;SDS011;13887;57.196;-2.100;2022-10-31T14:37:20;13.73;;;13.23;;
22068;SDS011;13887;57.196;-2.100;2022-10-31T14:40:02;13.60;;;13.10;;
22068;SDS011;13887;57.196;-2.100;2022-10-31T14:45:17;13.77;;;13.27;;
22068;SDS011;13887;57.196;-2.100;2022-10-31T14:53:08;13.30;;;12.90;;
22068;SDS011;13887;57.196;-2.100;2022-10-31T14:55:43;13.93;;;13.43;;
22068;SDS011;13887;57.196;-2.100;2022-10-31T14:58:19;13.97;;;13.47;;
22068;SDS011;13887;57.196;-2.100;2022-10-31T15:01:25;13.87;;;13.37;;
22068;SDS011;13887;57.196;-2.100;2022-10-31T15:04:00;13.63;;;13.13;;
22068;SDS011;13887;57.196;-2.100;2022-10-31T15:09:33;13.47;;;13.03;;
22068;SDS011;13887;57.196;-2.100;2022-10-31T15:12:21;13.47;;;13.03;;
22068;SDS011;13887;57.196;-2.100;2022-10-31T15:14:55;13.60;;;13.10;;
22068;SDS011;13887;57.196;-2.100;2022-10-31T15:17:25;13.67;;;13.17;;
22068;SDS011;13887;57.196;-2.100;2022-10-31T15:19:53;13.67;;;13.17;;
22068;SDS011;13887;57.196;-2.100;2022-10-31T15:22:22;13.80;;;13.30;;
22068;SDS011;13887;57.196;-2.100;2022-10-31T15:24:50;13.47;;;13.03;;
22068;SDS011;13887;57.196;-2.100;2022-10-31T15:27:23;13.90;;;13.40;;
22068;SDS011;13887;57.196;-2.100;2022-10-31T15:29:51;13.83;;;13.33;;
22068;SDS011;13887;57.196;-2.100;2022-10-31T15:32:24;13.87;;;13.37;;
22068;SDS011;13887;57.196;-2.100;2022-10-31T15:34:54;13.90;;;13.40;;
22068;SDS011;13887;57.196;-2.100;2022-10-31T15:37:25;14.00;;;13.50;;
22068;SDS011;13887;57.196;-2.100;2022-10-31T15:39:53;13.50;;;13.00;;
22068;SDS011;13887;57.196;-2.100;2022-10-31T15:42:33;13.53;;;13.03;;
22068;SDS011;13887;57.196;-2.100;2022-10-31T15:45:16;13.77;;;13.27;;
22068;SDS011;13887;57.196;-2.100;2022-10-31T15:47:48;14.00;;;13.50;;
22068;SDS011;13887;57.196;-2.100;2022-10-31T15:53:02;13.63;;;13.13;;
22068;SDS011;13887;57.196;-2.100;2022-10-31T15:55:32;13.77;;;13.27;;
22068;SDS011;13887;57.196;-2.100;2022-10-31T15:58:12;13.37;;;12.97;;
22068;SDS011;13887;57.196;-2.100;2022-10-31T16:00:41;14.00;;;13.50;;
22068;SDS011;13887;57.196;-2.100;2022-10-31T16:03:24;13.27;;;12.87;;
22068;SDS011;13887;57.196;-2.100;2022-10-31T16:05:54;13.17;;;12.77;;
22068;SDS011;13887;57.196;-2.100;2022-10-31T16:10:58;13.83;;;13.33;;
22068;SDS011;13887;57.196;-2.100;2022-10-31T16:13:29;14.00;;;13.50;;
22068;SDS011;13887;57.196;-2.100;2022-10-31T16:16:02;13.80;;;13.30;;
22068;SDS011;13887;57.196;-2.100;2022-10-31T16:18:57;13.83;;;13.33;;
22068;SDS011;13887;57.196;-2.100;2022-10-31T16:21:28;13.77;;;13.27;;
22068;SDS011;13887;57.196;-2.100;2022-10-31T16:24:02;13.30;;;12.90;;
22068;SDS011;13887;57.196;-2.100;2022-10-31T16:26:37;13.40;;;13.00;;
22068;SDS011;13887;57.196;-2.100;2022-10-31T16:29:04;13.60;;;13.10;;
22068;SDS011;13887;57.196;-2.100;2022-10-31T16:31:38;13.13;;;12.73;;
22068;SDS011;13887;57.196;-2.100;2022-10-31T16:36:41;13.93;;;13.43;;
22068;SDS011;13887;57.196;-2.100;2022-10-31T16:39:08;13.60;;;13.10;;
22068;SDS011;13887;57.196;-2.100;2022-10-31T16:41:38;13.73;;;13.23;;
22068;SDS011;13887;57.196;-2.100;2022-10-31T16:44:12;14.10;;;13.60;;
22068;SDS011;13887;57.196;-2.100;2022-10-31T16:46:47;13.87;;;13.37;;
22068;SDS011;13887;57.196;-2.100;2022-10-31T16:49:14;13.90;;;13.40;;